Time;durP1;ratioP1;P1;durP2;ratioP2;P2;SDS_P1;SDS_P2;PMS_P1;PMS_P2;Temp;Humidity;BMP_temperature;BMP_pressure;BME280_temperature;BME280_humidity;BME280_pressure;Samples;Min_cycle;Max_cycle;Signal;HPM_P1;HPM_P2
2021/12/30 00:01:12;;;;;;;33.05;6.25;;;7.50;99.90;;;;;;6134300;23;20029;-84
2021/12/30 00:03:38;;;;;;;37.97;5.95;;;7.50;99.90;;;;;;6158698;23;20083;-85
2021/12/30 00:06:05;;;;;;;38.03;7.38;;;7.50;99.90;;;;;;6183510;23;20028;-85
2021/12/30 00:08:32;;;;;;;43.60;6.97;;;7.50;99.90;;;;;;6156179;23;20039;-84
2021/12/30 00:10:59;;;;;;;29.20;6.35;;;7.50;99.90;;;;;;6110523;23;20017;-84
2021/12/30 00:13:29;;;;;;;43.47;8.00;;;7.50;99.90;;;;;;6159493;23;20071;-84
2021/12/30 00:15:55;;;;;;;36.85;8.35;;;7.60;99.90;;;;;;6138128;23;20029;-85
2021/12/30 00:18:21;;;;;;;47.22;7.47;;;7.60;99.90;;;;;;6187250;23;20029;-85
2021/12/30 00:20:48;;;;;;;42.50;6.68;;;7.60;99.90;;;;;;6157494;23;20017;-85
2021/12/30 00:23:14;;;;;;;52.15;10.07;;;7.70;99.90;;;;;;6133990;23;20409;-85
2021/12/30 00:25:41;;;;;;;43.63;8.13;;;7.60;99.90;;;;;;6159653;23;20025;-85
2021/12/30 00:28:10;;;;;;;46.55;8.85;;;7.60;99.90;;;;;;6186994;23;20052;-85
2021/12/30 00:30:36;;;;;;;43.58;7.13;;;7.60;99.90;;;;;;6138885;23;20021;-84
2021/12/30 00:33:02;;;;;;;41.20;6.45;;;7.60;99.90;;;;;;6160620;23;20126;-84
2021/12/30 00:35:28;;;;;;;51.00;10.43;;;7.70;99.90;;;;;;6183310;23;20045;-85
2021/12/30 00:37:56;;;;;;;50.15;8.85;;;7.60;99.90;;;;;;6183234;23;20071;-85
2021/12/30 00:40:22;;;;;;;51.42;8.23;;;7.60;99.90;;;;;;6134144;23;20516;-84
2021/12/30 00:42:48;;;;;;;53.58;8.40;;;7.60;99.90;;;;;;6134135;23;20461;-83
2021/12/30 00:45:14;;;;;;;49.97;9.23;;;7.70;99.90;;;;;;6182998;23;20100;-84
2021/12/30 00:47:40;;;;;;;55.97;9.27;;;7.60;99.90;;;;;;6185353;23;20036;-84
2021/12/30 00:50:07;;;;;;;56.40;8.88;;;7.60;99.90;;;;;;6183370;23;20025;-84
2021/12/30 00:52:34;;;;;;;45.97;9.30;;;7.60;99.90;;;;;;6134074;23;20099;-84
2021/12/30 00:55:00;;;;;;;51.88;9.65;;;7.60;99.90;;;;;;6158186;23;20021;-85
2021/12/30 00:57:26;;;;;;;51.90;9.70;;;7.60;99.90;;;;;;6184983;23;20025;-85
2021/12/30 00:59:52;;;;;;;63.25;12.02;;;7.50;99.90;;;;;;6133535;23;20091;-85
2021/12/30 01:02:18;;;;;;;52.33;10.20;;;7.50;99.90;;;;;;6157827;23;20021;-85
2021/12/30 01:04:43;;;;;;;56.53;8.68;;;7.50;99.90;;;;;;6185335;23;20025;-85
2021/12/30 01:07:09;;;;;;;51.50;8.52;;;7.50;99.90;;;;;;6184928;23;20484;-84
2021/12/30 01:09:36;;;;;;;45.28;10.82;;;7.50;99.90;;;;;;6157730;23;20020;-84
2021/12/30 01:12:02;;;;;;;55.72;9.57;;;7.50;99.90;;;;;;6158338;23;20449;-83
2021/12/30 01:14:30;;;;;;;58.13;9.02;;;7.50;99.90;;;;;;6185423;23;20104;-84
2021/12/30 01:17:00;;;;;;;50.15;9.30;;;7.40;99.90;;;;;;6161086;23;20037;-85
2021/12/30 01:20:00;;;;;;;74.57;11.63;;;7.40;99.90;;;;;;6163810;23;20081;-86
2021/12/30 01:22:25;;;;;;;58.53;9.93;;;7.30;99.90;;;;;;6156963;23;20092;-84
2021/12/30 01:24:51;;;;;;;54.55;9.20;;;7.30;99.90;;;;;;6157914;23;20025;-84
2021/12/30 01:27:18;;;;;;;47.72;8.90;;;7.30;99.90;;;;;;6184831;23;20021;-85
2021/12/30 01:29:44;;;;;;;59.90;10.20;;;7.30;99.90;;;;;;6157577;23;20029;-84
2021/12/30 01:32:10;;;;;;;55.72;10.80;;;7.30;99.90;;;;;;6182996;23;20024;-85
2021/12/30 01:34:38;;;;;;;65.13;9.25;;;7.40;99.90;;;;;;6184187;23;20056;-84
2021/12/30 01:37:05;;;;;;;65.53;9.95;;;7.30;99.90;;;;;;6156972;23;20536;-84
2021/12/30 01:39:33;;;;;;;54.42;11.18;;;7.30;99.90;;;;;;6183343;23;20029;-84
2021/12/30 01:41:59;;;;;;;59.13;9.77;;;7.30;99.90;;;;;;6185011;23;20021;-83
2021/12/30 01:44:25;;;;;;;58.65;11.75;;;7.20;99.90;;;;;;6158293;23;20101;-84
2021/12/30 01:46:52;;;;;;;64.85;10.45;;;7.20;99.90;;;;;;6158173;23;20040;-84
2021/12/30 01:49:18;;;;;;;51.45;9.88;;;7.20;99.90;;;;;;6183040;23;20084;-84
2021/12/30 01:51:45;;;;;;;55.05;9.02;;;7.20;99.90;;;;;;6158577;23;20480;-84
2021/12/30 01:54:11;;;;;;;51.10;9.60;;;7.20;99.90;;;;;;6108659;23;20126;-85
2021/12/30 01:56:37;;;;;;;60.88;10.27;;;7.10;99.90;;;;;;6183216;23;20021;-85
2021/12/30 01:59:04;;;;;;;50.95;8.57;;;7.10;99.90;;;;;;6134196;23;20028;-85
2021/12/30 02:01:30;;;;;;;50.78;9.60;;;7.10;99.90;;;;;;6185606;23;20021;-84
2021/12/30 02:03:56;;;;;;;49.65;11.15;;;7.10;99.90;;;;;;6188982;23;20032;-84
2021/12/30 02:06:22;;;;;;;61.33;10.15;;;7.10;99.90;;;;;;6132527;23;20021;-85
2021/12/30 02:08:49;;;;;;;48.50;10.35;;;7.10;99.90;;;;;;6157326;23;20509;-85
2021/12/30 02:11:18;;;;;;;44.33;8.82;;;7.10;99.90;;;;;;6152466;23;20466;-84
2021/12/30 02:13:46;;;;;;;48.75;10.40;;;7.10;99.90;;;;;;6152302;23;20025;-85
2021/12/30 02:16:15;;;;;;;47.05;9.68;;;7.20;99.90;;;;;;6128266;23;20021;-85
2021/12/30 02:18:41;;;;;;;48.90;8.52;;;7.10;99.90;;;;;;6152741;23;20029;-85
2021/12/30 02:21:06;;;;;;;53.65;9.13;;;7.10;99.90;;;;;;6177824;23;20052;-85
2021/12/30 02:23:35;;;;;;;46.45;8.27;;;7.10;99.90;;;;;;6152906;23;20457;-85
2021/12/30 02:26:05;;;;;;;43.80;9.07;;;7.10;99.90;;;;;;6152637;23;20469;-85
2021/12/30 02:28:33;;;;;;;54.22;8.05;;;7.00;99.90;;;;;;6154296;23;20156;-85
2021/12/30 02:31:01;;;;;;;51.55;9.82;;;7.10;99.90;;;;;;6154601;23;20137;-85
2021/12/30 02:33:27;;;;;;;59.60;8.75;;;7.10;99.90;;;;;;6152980;23;20024;-85
2021/12/30 02:35:54;;;;;;;58.67;9.05;;;7.10;99.90;;;;;;6152834;23;20080;-85
2021/12/30 02:38:21;;;;;;;59.20;11.57;;;7.10;99.90;;;;;;6178309;23;20520;-85
2021/12/30 02:40:50;;;;;;;57.20;10.43;;;7.10;99.90;;;;;;6156682;23;20096;-86
2021/12/30 02:43:20;;;;;;;44.22;9.40;;;7.10;99.90;;;;;;6159074;23;20025;-85
2021/12/30 02:45:46;;;;;;;59.58;10.93;;;7.00;99.90;;;;;;6152993;23;20508;-84
2021/12/30 02:48:27;;;;;;;54.13;9.60;;;7.10;99.90;;;;;;6128432;23;20022;-83
2021/12/30 02:50:56;;;;;;;55.67;7.95;;;7.10;99.90;;;;;;6176530;23;20018;-83
2021/12/30 02:53:22;;;;;;;48.83;8.48;;;7.00;99.90;;;;;;6152938;23;20026;-84
2021/12/30 02:55:49;;;;;;;59.60;10.82;;;7.00;99.90;;;;;;6177422;23;20026;-84
2021/12/30 02:58:15;;;;;;;59.20;9.73;;;7.00;99.90;;;;;;6153210;23;20025;-84
2021/12/30 03:00:42;;;;;;;51.38;9.43;;;7.00;99.90;;;;;;6127690;23;20029;-83
2021/12/30 03:03:22;;;;;;;62.85;10.75;;;7.00;99.90;;;;;;6152449;23;20113;-84
2021/12/30 03:05:50;;;;;;;46.70;8.93;;;7.00;99.90;;;;;;6152210;23;20026;-84
2021/12/30 03:08:31;;;;;;;44.50;8.88;;;7.00;99.90;;;;;;6081920;23;20034;-84
2021/12/30 03:10:58;;;;;;;40.85;8.25;;;7.00;99.90;;;;;;6099425;23;20459;-84
2021/12/30 03:13:31;;;;;;;50.72;8.45;;;7.00;99.90;;;;;;6099735;23;20030;-84
2021/12/30 03:16:03;;;;;;;48.67;10.10;;;7.00;99.90;;;;;;6099384;23;20028;-85
2021/12/30 03:18:31;;;;;;;54.35;8.95;;;7.00;99.90;;;;;;6101451;23;20026;-85
2021/12/30 03:20:57;;;;;;;48.35;9.38;;;7.00;99.90;;;;;;6104056;23;20033;-85
2021/12/30 03:23:23;;;;;;;46.75;7.95;;;7.00;99.90;;;;;;6100001;23;20025;-85
2021/12/30 03:25:49;;;;;;;52.55;8.52;;;7.10;99.90;;;;;;6098523;23;20501;-84
2021/12/30 03:28:15;;;;;;;46.80;8.82;;;7.10;99.90;;;;;;6099098;23;20037;-84
2021/12/30 03:30:41;;;;;;;52.22;8.18;;;7.10;99.90;;;;;;6098553;23;20049;-84
2021/12/30 03:33:07;;;;;;;44.50;7.97;;;7.00;99.90;;;;;;6098602;23;20050;-84
2021/12/30 03:35:33;;;;;;;48.22;8.18;;;7.00;99.90;;;;;;6123423;23;20561;-83
2021/12/30 03:37:59;;;;;;;65.50;8.88;;;7.00;99.90;;;;;;6124017;23;20026;-84
2021/12/30 03:40:25;;;;;;;51.47;8.07;;;7.00;99.90;;;;;;6146430;23;20021;-83
2021/12/30 03:42:51;;;;;;;46.72;10.45;;;7.00;99.90;;;;;;6154078;23;20033;-84
2021/12/30 03:45:18;;;;;;;45.63;8.55;;;7.10;99.90;;;;;;6156806;23;20115;-84
2021/12/30 03:47:46;;;;;;;64.85;9.40;;;7.10;99.90;;;;;;6154983;23;20021;-83
2021/12/30 03:50:19;;;;;;;48.80;8.50;;;7.20;99.90;;;;;;6160650;23;20081;-84
2021/12/30 03:52:47;;;;;;;62.42;10.90;;;7.30;99.90;;;;;;6181684;23;20126;-84
2021/12/30 03:55:13;;;;;;;52.15;10.88;;;7.30;99.90;;;;;;6129207;23;20021;-84
2021/12/30 03:57:49;;;;;;;66.90;10.95;;;7.30;99.90;;;;;;6130796;23;20032;-84
2021/12/30 04:00:15;;;;;;;75.95;10.05;;;7.30;99.90;;;;;;6155442;23;20533;-84
2021/12/30 04:02:41;;;;;;;64.35;10.32;;;7.30;99.90;;;;;;6155842;23;20080;-83
2021/12/30 04:05:08;;;;;;;54.03;9.55;;;7.30;99.90;;;;;;6129354;23;20104;-84
2021/12/30 04:07:34;;;;;;;66.15;9.18;;;7.30;99.90;;;;;;6123018;23;20037;-83
2021/12/30 04:10:22;;;;;;;;;;;7.30;99.90;;;;;;6123837;23;20021;-84
2021/12/30 04:12:49;;;;;;;65.75;9.73;;;7.20;99.90;;;;;;6098423;23;19947;-84
2021/12/30 04:15:21;;;;;;;60.85;9.65;;;7.30;99.90;;;;;;6098790;23;20022;-84
2021/12/30 04:17:47;;;;;;;56.22;9.63;;;7.30;99.90;;;;;;6122945;23;20063;-83
2021/12/30 04:20:15;;;;;;;64.75;10.70;;;7.30;99.90;;;;;;6098559;23;20057;-84
2021/12/30 04:22:41;;;;;;;55.25;10.20;;;7.30;99.90;;;;;;6123556;23;20086;-84
2021/12/30 04:25:09;;;;;;;70.07;11.57;;;7.30;99.90;;;;;;6124006;23;20114;-84
2021/12/30 04:27:40;;;;;;;66.43;10.40;;;7.30;99.90;;;;;;6124540;23;20022;-84
2021/12/30 04:30:08;;;;;;;73.10;12.00;;;7.30;99.90;;;;;;6073854;23;20029;-84
2021/12/30 04:32:34;;;;;;;68.82;11.50;;;7.30;99.90;;;;;;6074707;23;20052;-84
2021/12/30 04:35:01;;;;;;;77.15;12.55;;;7.30;99.90;;;;;;6074643;23;20533;-83
2021/12/30 04:37:47;;;;;;;67.90;13.20;;;7.30;99.90;;;;;;6097762;23;20026;-84
2021/12/30 04:40:13;;;;;;;82.50;14.32;;;7.30;99.90;;;;;;6098097;23;20026;-84
2021/12/30 04:42:39;;;;;;;81.10;14.60;;;7.30;99.90;;;;;;6123034;23;20515;-85
2021/12/30 04:45:06;;;;;;;70.25;13.32;;;7.30;99.90;;;;;;6101887;23;20449;-84
2021/12/30 04:47:32;;;;;;;62.55;14.00;;;7.40;99.90;;;;;;6155609;23;20410;-84
2021/12/30 04:49:58;;;;;;;74.15;13.00;;;7.30;99.90;;;;;;6155517;23;20049;-84
2021/12/30 04:52:25;;;;;;;80.50;14.70;;;7.30;99.90;;;;;;6153709;23;20065;-84
2021/12/30 04:54:51;;;;;;;74.68;14.70;;;7.40;99.90;;;;;;6153905;23;20029;-85
2021/12/30 04:57:17;;;;;;;81.93;16.27;;;7.40;99.90;;;;;;6129389;23;20036;-84
2021/12/30 04:59:43;;;;;;;70.55;16.92;;;7.40;99.90;;;;;;6153788;23;20021;-85
2021/12/30 05:02:09;;;;;;;88.65;16.38;;;7.40;99.90;;;;;;6156632;23;20052;-85
2021/12/30 05:04:35;;;;;;;79.57;16.77;;;7.50;99.90;;;;;;6153705;23;20528;-85
2021/12/30 05:07:00;;;;;;;88.45;15.93;;;7.50;99.90;;;;;;6155136;23;20033;-85
2021/12/30 05:09:26;;;;;;;74.07;15.68;;;7.60;99.90;;;;;;6154971;23;20033;-85
2021/12/30 05:11:53;;;;;;;84.05;17.00;;;7.70;99.90;;;;;;6128328;23;20354;-84
2021/12/30 05:14:19;;;;;;;83.70;16.52;;;7.70;99.90;;;;;;6153459;23;20021;-84
2021/12/30 05:16:45;;;;;;;73.68;15.65;;;7.80;99.90;;;;;;6152416;23;20047;-84
2021/12/30 05:19:11;;;;;;;94.97;16.90;;;7.90;99.90;;;;;;6153405;23;20033;-85
2021/12/30 05:21:37;;;;;;;84.45;17.95;;;8.00;99.90;;;;;;6155723;23;20017;-84
2021/12/30 05:24:04;;;;;;;87.32;17.70;;;8.00;99.90;;;;;;6128973;23;20454;-84
2021/12/30 05:26:30;;;;;;;92.40;22.08;;;8.10;99.90;;;;;;6155601;23;20048;-84
2021/12/30 05:28:57;;;;;;;86.13;19.08;;;8.20;99.90;;;;;;6153530;23;20465;-85
2021/12/30 05:31:24;;;;;;;99.35;20.30;;;8.20;99.90;;;;;;6153088;23;20512;-85
2021/12/30 05:33:50;;;;;;;82.55;19.88;;;8.20;99.90;;;;;;6155409;23;20387;-84
2021/12/30 05:36:17;;;;;;;105.55;21.05;;;8.30;99.90;;;;;;6153385;23;20057;-85
2021/12/30 05:38:43;;;;;;;108.60;22.35;;;8.30;99.90;;;;;;6154675;23;20454;-84
2021/12/30 05:41:09;;;;;;;112.90;21.67;;;8.40;99.90;;;;;;6157117;23;20386;-84
2021/12/30 05:43:35;;;;;;;95.43;22.10;;;8.40;99.90;;;;;;6127846;23;20030;-84
2021/12/30 05:46:00;;;;;;;125.55;25.92;;;8.50;99.90;;;;;;6128429;23;20221;-83
2021/12/30 05:48:27;;;;;;;128.30;25.95;;;8.50;99.90;;;;;;6177719;23;20029;-84
2021/12/30 05:50:54;;;;;;;113.70;28.55;;;8.60;99.90;;;;;;6152824;23;20027;-83
2021/12/30 05:53:20;;;;;;;132.43;29.23;;;8.70;99.90;;;;;;6154885;23;20395;-84
2021/12/30 05:55:46;;;;;;;111.32;27.10;;;8.70;99.90;;;;;;6155112;23;20022;-84
2021/12/30 05:58:12;;;;;;;121.05;27.88;;;8.70;99.90;;;;;;6154546;23;20460;-84
2021/12/30 06:00:38;;;;;;;128.15;28.30;;;8.80;99.90;;;;;;6127446;23;20101;-84
2021/12/30 06:03:04;;;;;;;98.85;26.98;;;8.90;99.90;;;;;;6152748;23;20021;-84
2021/12/30 06:05:31;;;;;;;120.82;26.95;;;8.90;99.90;;;;;;6127404;23;20519;-84
2021/12/30 06:07:57;;;;;;;97.18;27.67;;;9.00;99.90;;;;;;6128439;23;20446;-84
2021/12/30 06:10:22;;;;;;;80.30;23.63;;;9.00;99.90;;;;;;6129423;23;20025;-84
2021/12/30 06:12:49;;;;;;;101.85;26.60;;;9.10;99.90;;;;;;6153039;23;20033;-84
2021/12/30 06:15:15;;;;;;;97.95;25.88;;;9.10;99.90;;;;;;6123391;23;20026;-84
2021/12/30 06:17:41;;;;;;;94.97;26.00;;;9.10;99.90;;;;;;6148154;23;20065;-83
2021/12/30 06:20:09;;;;;;;97.70;27.50;;;9.20;99.90;;;;;;6148277;23;20096;-83
2021/12/30 06:22:35;;;;;;;97.60;26.83;;;9.20;99.90;;;;;;6147359;23;20161;-84
2021/12/30 06:25:03;;;;;;;88.57;24.75;;;9.20;99.90;;;;;;6148033;23;20030;-83
2021/12/30 06:27:29;;;;;;;84.40;25.40;;;9.20;99.90;;;;;;6125142;23;20135;-83
2021/12/30 06:29:55;;;;;;;84.97;26.48;;;9.20;99.90;;;;;;6147895;23;20018;-83
2021/12/30 06:32:20;;;;;;;90.68;26.73;;;9.20;99.90;;;;;;6124911;23;20081;-84
2021/12/30 06:34:46;;;;;;;98.72;27.50;;;9.20;99.90;;;;;;6123435;23;20029;-83
2021/12/30 06:37:12;;;;;;;101.50;27.67;;;9.20;99.90;;;;;;6148387;23;20033;-83
2021/12/30 06:39:38;;;;;;;93.80;27.40;;;9.30;99.90;;;;;;6102520;23;20342;-83
2021/12/30 06:42:04;;;;;;;93.35;28.15;;;9.30;99.90;;;;;;6153382;23;20037;-84
2021/12/30 06:44:36;;;;;;;96.65;26.85;;;9.40;99.90;;;;;;6128756;23;20058;-84
2021/12/30 06:47:05;;;;;;;102.88;26.80;;;9.30;99.90;;;;;;6127139;23;20049;-85
2021/12/30 06:49:37;;;;;;;122.25;31.15;;;9.30;99.90;;;;;;6151064;23;20081;-85
2021/12/30 06:52:08;;;;;;;109.78;28.33;;;9.30;99.90;;;;;;6150818;23;20026;-86
2021/12/30 06:54:35;;;;;;;98.05;26.00;;;9.20;99.90;;;;;;6150861;23;20026;-85
2021/12/30 06:57:02;;;;;;;102.97;27.95;;;9.30;99.90;;;;;;6150641;23;20026;-85
2021/12/30 06:59:29;;;;;;;92.60;26.80;;;9.30;99.90;;;;;;6126159;23;20455;-85
2021/12/30 07:01:57;;;;;;;102.00;26.75;;;9.30;99.90;;;;;;6125857;23;20034;-85
2021/12/30 07:04:25;;;;;;;96.97;26.02;;;9.30;99.90;;;;;;6125569;23;20022;-85
2021/12/30 07:06:52;;;;;;;101.30;25.48;;;9.30;99.90;;;;;;6127409;23;20026;-85
2021/12/30 07:09:20;;;;;;;88.90;24.38;;;9.30;99.90;;;;;;6126805;23;20517;-85
2021/12/30 07:11:49;;;;;;;90.82;24.10;;;9.30;99.90;;;;;;6148607;23;20100;-86
2021/12/30 07:14:17;;;;;;;99.72;25.30;;;9.40;99.90;;;;;;6127020;23;20026;-85
2021/12/30 07:16:43;;;;;;;99.05;26.25;;;9.40;99.90;;;;;;6100834;23;20054;-85
2021/12/30 07:19:08;;;;;;;106.60;25.35;;;9.40;99.90;;;;;;6149873;23;20049;-84
2021/12/30 07:21:34;;;;;;;106.25;24.75;;;9.40;99.90;;;;;;6150073;23;20018;-84
2021/12/30 07:24:00;;;;;;;100.68;24.45;;;9.40;99.90;;;;;;6149715;23;20049;-85
2021/12/30 07:26:26;;;;;;;94.60;24.35;;;9.40;99.90;;;;;;6125304;23;20073;-85
2021/12/30 07:28:54;;;;;;;95.35;23.85;;;9.40;99.90;;;;;;6149908;23;20379;-84
2021/12/30 07:31:19;;;;;;;114.35;25.10;;;9.40;99.90;;;;;;6125693;23;20105;-85
2021/12/30 07:33:49;;;;;;;88.93;22.42;;;9.40;99.90;;;;;;6125084;23;20347;-85
2021/12/30 07:36:14;;;;;;;76.07;22.10;;;9.40;99.90;;;;;;6100209;23;20029;-85
2021/12/30 07:38:40;;;;;;;73.70;21.98;;;9.40;99.90;;;;;;6126748;23;20037;-85
2021/12/30 07:41:06;;;;;;;82.93;21.42;;;9.50;99.90;;;;;;6149386;23;20026;-85
2021/12/30 07:43:32;;;;;;;66.70;19.00;;;9.50;99.90;;;;;;6149432;23;20033;-85
2021/12/30 07:45:59;;;;;;;83.40;21.70;;;9.50;99.90;;;;;;6126462;23;20354;-85
2021/12/30 07:48:25;;;;;;;68.20;18.92;;;9.50;99.90;;;;;;6149369;23;20028;-86
2021/12/30 07:50:51;;;;;;;81.15;19.75;;;9.60;99.90;;;;;;6125183;23;20029;-86
2021/12/30 07:53:17;;;;;;;72.70;20.05;;;9.50;99.90;;;;;;6123221;23;20026;-84
2021/12/30 07:56:06;;;;;;;57.33;16.48;;;9.60;99.90;;;;;;6125275;23;20021;-84
2021/12/30 07:58:35;;;;;;;67.95;17.85;;;9.60;99.90;;;;;;6100719;23;20390;-83
2021/12/30 08:01:02;;;;;;;67.15;18.05;;;9.60;99.90;;;;;;6126704;23;20108;-83
2021/12/30 08:03:28;;;;;;;61.67;17.23;;;9.60;99.90;;;;;;6100556;23;20080;-84
2021/12/30 08:05:53;;;;;;;53.28;15.60;;;9.60;99.90;;;;;;6100544;23;20417;-84
2021/12/30 08:08:19;;;;;;;52.28;15.38;;;9.60;99.90;;;;;;6126441;23;20028;-83
2021/12/30 08:10:46;;;;;;;48.80;13.90;;;9.60;99.90;;;;;;6132295;23;20480;-84
2021/12/30 08:13:12;;;;;;;47.88;13.35;;;9.60;99.90;;;;;;6158957;23;20024;-83
2021/12/30 08:15:38;;;;;;;43.03;12.38;;;9.70;99.90;;;;;;6158698;23;20036;-85
2021/12/30 08:18:06;;;;;;;39.40;11.23;;;9.70;99.90;;;;;;6158137;23;20029;-84
2021/12/30 08:20:40;;;;;;;31.77;10.05;;;9.70;99.90;;;;;;6135669;23;20025;-84
2021/12/30 08:23:05;;;;;;;27.50;8.90;;;9.70;99.90;;;;;;6109885;23;20025;-84
2021/12/30 08:25:33;;;;;;;21.05;8.18;;;9.70;99.90;;;;;;6181306;23;20060;-83
2021/12/30 08:28:08;;;;;;;30.27;9.05;;;9.80;99.90;;;;;;6138460;23;20036;-85
2021/12/30 08:30:34;;;;;;;28.30;8.55;;;9.80;99.90;;;;;;6134954;23;20027;-84
2021/12/30 08:33:19;;;;;;;26.15;9.00;;;9.90;99.90;;;;;;6134489;23;20397;-83
2021/12/30 08:35:49;;;;;;;28.67;9.60;;;9.90;99.90;;;;;;6159160;23;20025;-84
2021/12/30 08:38:17;;;;;;;27.45;10.07;;;10.00;99.90;;;;;;6134696;23;20326;-85
2021/12/30 08:40:48;;;;;;;32.80;11.73;;;10.10;99.90;;;;;;6158431;23;20112;-84
2021/12/30 08:43:16;;;;;;;54.35;14.02;;;10.20;99.90;;;;;;6159419;23;20028;-85
2021/12/30 08:45:43;;;;;;;41.58;14.57;;;10.30;99.90;;;;;;6158826;23;20021;-84
2021/12/30 08:48:09;;;;;;;31.13;13.07;;;10.40;99.90;;;;;;6160971;23;20036;-83
2021/12/30 08:50:36;;;;;;;42.72;13.45;;;10.40;99.90;;;;;;6161339;23;20021;-83
2021/12/30 08:53:02;;;;;;;30.05;11.77;;;10.50;99.90;;;;;;6158881;23;20021;-84
2021/12/30 08:55:28;;;;;;;34.55;12.10;;;10.50;99.90;;;;;;6158268;23;20036;-85
2021/12/30 08:57:54;;;;;;;34.75;10.85;;;10.50;99.90;;;;;;6133688;23;20025;-85
2021/12/30 09:00:23;;;;;;;35.33;9.00;;;10.50;99.90;;;;;;6133559;23;20453;-85
2021/12/30 09:02:50;;;;;;;25.25;9.32;;;10.60;99.90;;;;;;6185167;23;20088;-86
2021/12/30 09:05:16;;;;;;;30.98;8.38;;;10.60;99.90;;;;;;6183086;23;20024;-83
2021/12/30 09:07:42;;;;;;;34.95;8.02;;;10.60;99.90;;;;;;6131880;23;20418;-83
2021/12/30 09:10:10;;;;;;;27.67;7.82;;;10.70;99.90;;;;;;6154209;23;20025;-85
2021/12/30 09:12:37;;;;;;;26.90;7.25;;;10.70;99.90;;;;;;6178320;23;20501;-84
2021/12/30 09:15:05;;;;;;;25.58;7.15;;;10.60;99.90;;;;;;6128850;23;20025;-83
2021/12/30 09:17:34;;;;;;;31.05;7.75;;;10.70;99.90;;;;;;6128662;23;20334;-84
2021/12/30 09:19:59;;;;;;;28.63;7.03;;;10.70;99.90;;;;;;6128034;23;20029;-84
2021/12/30 09:22:25;;;;;;;31.00;7.32;;;10.70;99.90;;;;;;6153693;23;20024;-83
2021/12/30 09:24:53;;;;;;;29.17;6.50;;;10.80;99.90;;;;;;6152593;23;20028;-86
2021/12/30 09:27:18;;;;;;;31.45;6.40;;;10.70;99.90;;;;;;6150594;23;20021;-84
2021/12/30 09:29:44;;;;;;;31.77;6.95;;;10.70;99.90;;;;;;6155281;23;20028;-84
2021/12/30 09:32:16;;;;;;;26.73;5.75;;;10.70;99.90;;;;;;6127984;23;20457;-85
2021/12/30 09:34:42;;;;;;;33.85;7.88;;;10.70;99.90;;;;;;6178107;23;20020;-85
2021/12/30 09:37:10;;;;;;;21.58;5.65;;;10.70;99.90;;;;;;6153228;23;20032;-85
2021/12/30 09:39:38;;;;;;;27.25;6.63;;;10.70;99.90;;;;;;6124878;23;20036;-84
2021/12/30 09:42:04;;;;;;;29.45;5.43;;;10.80;99.90;;;;;;6152905;23;20021;-85
2021/12/30 09:44:30;;;;;;;29.80;5.68;;;10.80;99.90;;;;;;6154810;23;20036;-85
2021/12/30 09:47:02;;;;;;;16.38;4.65;;;10.90;99.90;;;;;;6154104;23;20025;-85
2021/12/30 09:49:28;;;;;;;25.08;6.05;;;10.80;99.90;;;;;;6153676;23;20013;-85
2021/12/30 09:51:54;;;;;;;29.83;6.25;;;10.80;99.90;;;;;;6153804;23;20021;-86
2021/12/30 09:54:23;;;;;;;25.92;5.95;;;10.80;99.90;;;;;;6152380;23;20118;-86
2021/12/30 09:56:50;;;;;;;27.95;4.88;;;10.80;99.90;;;;;;6153330;23;20430;-87
2021/12/30 09:59:16;;;;;;;27.10;6.00;;;10.80;99.90;;;;;;6154550;23;20480;-86
2021/12/30 10:01:43;;;;;;;26.90;5.03;;;10.80;99.90;;;;;;6152184;23;20022;-86
2021/12/30 10:04:10;;;;;;;34.85;7.90;;;10.70;99.90;;;;;;6153203;23;20052;-86
2021/12/30 10:06:50;;;;;;;42.05;6.38;;;10.80;99.90;;;;;;6154728;23;20029;-86
2021/12/30 10:09:16;;;;;;;29.95;6.40;;;10.80;99.90;;;;;;6153232;23;20021;-86
2021/12/30 10:11:48;;;;;;;38.17;5.97;;;10.80;99.90;;;;;;6128606;23;20030;-85
2021/12/30 10:14:33;;;;;;;34.15;7.53;;;10.80;99.90;;;;;;6152614;23;20476;-85
2021/12/30 10:17:19;;;;;;;28.13;5.10;;;10.70;99.90;;;;;;6176930;23;20025;-86
2021/12/30 10:19:45;;;;;;;28.98;5.15;;;10.80;99.90;;;;;;6154666;23;20025;-86
2021/12/30 10:22:14;;;;;;;37.05;6.35;;;10.80;99.90;;;;;;6155087;23;20056;-86
2021/12/30 10:24:40;;;;;;;21.70;5.22;;;10.80;99.90;;;;;;6178260;23;20033;-85
2021/12/30 10:27:07;;;;;;;31.25;6.15;;;10.80;99.90;;;;;;6155954;23;20025;-85
2021/12/30 10:29:47;;;;;;;35.80;7.70;;;10.80;99.90;;;;;;6155513;23;20025;-86
2021/12/30 10:32:18;;;;;;;29.45;6.20;;;10.80;99.90;;;;;;6156788;23;20017;-86
2021/12/30 10:35:13;;;;;;;29.88;5.85;;;10.80;99.90;;;;;;6178974;23;20097;-86
2021/12/30 10:37:43;;;;;;;30.58;6.50;;;10.80;99.90;;;;;;6129492;23;20040;-85
2021/12/30 10:40:30;;;;;;;44.25;8.02;;;10.80;99.90;;;;;;6153117;23;20032;-85
2021/12/30 10:43:18;;;;;;;32.65;6.40;;;10.80;99.90;;;;;;6154880;23;20025;-85
2021/12/30 10:45:59;;;;;;;45.38;6.47;;;10.90;99.90;;;;;;6152483;23;20052;-84
2021/12/30 10:48:25;;;;;;;31.35;5.22;;;10.80;99.90;;;;;;6152905;23;20331;-85
2021/12/30 10:50:50;;;;;;;38.78;6.43;;;10.90;99.90;;;;;;6151866;23;20035;-85
2021/12/30 10:53:27;;;;;;;32.30;6.43;;;10.80;99.90;;;;;;6154869;23;20060;-86
2021/12/30 10:55:52;;;;;;;31.13;6.38;;;10.80;99.90;;;;;;6155056;23;20021;-85
2021/12/30 10:58:25;;;;;;;38.53;7.38;;;10.80;99.90;;;;;;6152615;23;20159;-86
2021/12/30 11:00:51;;;;;;;37.80;6.38;;;10.80;99.90;;;;;;6152723;23;20033;-86
2021/12/30 11:03:24;;;;;;;34.60;7.85;;;10.80;99.90;;;;;;6153314;23;20315;-86
2021/12/30 11:06:13;;;;;;;35.97;7.30;;;10.80;99.90;;;;;;6153059;23;20029;-86
2021/12/30 11:08:39;;;;;;;39.55;8.25;;;10.90;99.90;;;;;;6152826;23;20028;-84
2021/12/30 11:11:26;;;;;;;38.72;7.65;;;11.00;99.90;;;;;;6152504;23;20022;-85
2021/12/30 11:14:14;;;;;;;48.70;8.07;;;10.90;99.90;;;;;;6151861;23;20021;-85
2021/12/30 11:17:21;;;;;;;39.80;7.65;;;10.90;99.90;;;;;;6154166;23;20485;-85
2021/12/30 11:19:56;;;;;;;49.30;8.65;;;10.90;99.90;;;;;;6155820;23;20789;-86
2021/12/30 11:22:24;;;;;;;;;;;10.90;99.90;;;;;;6155419;23;20025;-85
2021/12/30 11:24:53;;;;;;;51.10;9.05;;;10.90;99.90;;;;;;6153267;23;20226;-85
2021/12/30 11:27:20;;;;;;;47.85;9.38;;;10.90;99.90;;;;;;6155258;23;20238;-85
2021/12/30 11:29:47;;;;;;;46.88;9.15;;;11.00;99.90;;;;;;6153168;23;20417;-85
2021/12/30 11:32:18;;;;;;;41.80;8.82;;;10.90;99.90;;;;;;6156085;23;20337;-85
2021/12/30 11:34:45;;;;;;;48.83;9.70;;;10.90;99.90;;;;;;6154454;23;20021;-85
2021/12/30 11:37:12;;;;;;;47.15;8.95;;;11.00;99.90;;;;;;6129621;23;20040;-86
2021/12/30 11:39:45;;;;;;;51.78;9.35;;;11.00;99.90;;;;;;6156309;23;20096;-85
2021/12/30 11:42:43;;;;;;;58.47;10.95;;;10.90;99.90;;;;;;6154435;23;20477;-85
2021/12/30 11:45:25;;;;;;;47.13;8.38;;;10.90;99.90;;;;;;6155614;23;20728;-85
2021/12/30 11:47:52;;;;;;;42.78;10.65;;;11.00;99.90;;;;;;6153506;23;20036;-86
2021/12/30 11:50:31;;;;;;;43.75;8.55;;;10.90;99.90;;;;;;6153541;23;20018;-86
2021/12/30 11:53:01;;;;;;;46.72;9.30;;;10.90;99.90;;;;;;6153640;23;20021;-85
2021/12/30 11:55:42;;;;;;;58.63;9.50;;;10.80;99.90;;;;;;6130136;23;20025;-85
2021/12/30 11:58:40;;;;;;;49.40;9.50;;;10.80;99.90;;;;;;6155226;23;20021;-85
2021/12/30 12:01:19;;;;;;;51.65;8.15;;;10.90;99.90;;;;;;6105646;23;20084;-86
2021/12/30 12:03:54;;;;;;;45.65;10.20;;;10.90;99.90;;;;;;6179173;23;20022;-85
2021/12/30 12:06:32;;;;;;;48.40;9.57;;;10.90;99.90;;;;;;6178145;23;20115;-85
2021/12/30 12:09:18;;;;;;;57.22;12.32;;;10.90;99.90;;;;;;6154244;23;20026;-85
2021/12/30 12:11:50;;;;;;;56.60;9.68;;;10.90;99.90;;;;;;6154130;23;20080;-85
2021/12/30 12:14:26;;;;;;;42.47;8.43;;;10.90;99.90;;;;;;6153381;23;20029;-86
2021/12/30 12:17:03;;;;;;;52.92;12.68;;;11.00;99.90;;;;;;6156326;23;20034;-85
2021/12/30 12:19:50;;;;;;;53.72;10.55;;;11.00;99.90;;;;;;6129038;23;20021;-84
2021/12/30 12:22:19;;;;;;;42.65;7.90;;;11.10;99.90;;;;;;6178990;23;20488;-85
2021/12/30 12:25:07;;;;;;;47.22;9.25;;;11.10;99.90;;;;;;6154206;23;20026;-85
2021/12/30 12:27:37;;;;;;;44.90;10.63;;;11.00;99.90;;;;;;6153656;23;20453;-84
2021/12/30 12:30:19;;;;;;;50.50;10.38;;;11.10;99.90;;;;;;6130384;23;20449;-84
2021/12/30 12:32:45;;;;;;;54.30;9.73;;;11.10;99.90;;;;;;6154374;23;20026;-85
2021/12/30 12:35:19;;;;;;;47.97;9.98;;;11.10;99.90;;;;;;6179431;23;20025;-85
2021/12/30 12:37:48;;;;;;;47.72;10.23;;;11.10;99.90;;;;;;6156738;23;20025;-84
2021/12/30 12:40:17;;;;;;;40.03;9.05;;;11.20;99.90;;;;;;6154517;23;20461;-85
2021/12/30 12:42:42;;;;;;;46.15;8.68;;;11.10;99.90;;;;;;6158111;23;20508;-85
2021/12/30 12:45:50;;;;;;;50.72;9.50;;;11.10;99.90;;;;;;6156804;23;20251;-85
2021/12/30 12:48:20;;;;;;;44.17;8.52;;;11.20;99.90;;;;;;6147099;23;20029;-85